Time;durP1;ratioP1;P1;durP2;ratioP2;P2;SDS_P1;SDS_P2;PMS_P1;PMS_P2;Temp;Humidity;BMP_temperature;BMP_pressure;BME280_temperature;BME280_humidity;BME280_pressure;Samples;Min_cycle;Max_cycle;Signal;HPM_P1;HPM_P2
2021/06/17 00:02:12;;;;;;;6.50;3.90;;;;;;;21.37;100.00;97724.72;4957646;28;20126;-82
2021/06/17 00:04:39;;;;;;;10.52;4.13;;;;;;;21.36;100.00;97733.38;4942336;29;20047;-82
2021/06/17 00:07:05;;;;;;;7.25;3.47;;;;;;;21.32;100.00;97727.81;4961740;28;20047;-83
2021/06/17 00:09:32;;;;;;;8.38;3.88;;;;;;;21.32;100.00;97727.06;4948347;29;20118;-82
2021/06/17 00:12:01;;;;;;;7.88;4.00;;;;;;;21.18;100.00;97704.91;4949028;29;20061;-83
2021/06/17 00:14:33;;;;;;;8.77;3.72;;;;;;;21.13;100.00;97714.31;4964765;29;20143;-81
2021/06/17 00:17:02;;;;;;;10.10;4.22;;;;;;;21.14;100.00;97717.88;4969325;29;20058;-82
2021/06/17 00:19:30;;;;;;;6.88;3.72;;;;;;;21.08;100.00;97717.44;4967345;28;20058;-83
2021/06/17 00:21:59;;;;;;;5.80;3.47;;;;;;;21.02;100.00;97707.91;4956680;29;20143;-82
2021/06/17 00:24:26;;;;;;;7.20;3.83;;;;;;;20.99;100.00;97720.47;4969304;29;20035;-82
2021/06/17 00:26:53;;;;;;;8.25;4.07;;;;;;;20.93;100.00;97704.69;4971196;29;20142;-82
2021/06/17 00:29:20;;;;;;;8.25;4.20;;;;;;;20.96;100.00;97721.22;4969774;29;20099;-83
2021/06/17 00:31:48;;;;;;;10.20;3.95;;;;;;;20.95;100.00;97724.38;4969571;28;20491;-85
2021/06/17 00:34:14;;;;;;;8.23;4.20;;;;;;;20.88;100.00;97708.56;4961121;29;20134;-83
2021/06/17 00:36:41;;;;;;;7.22;4.00;;;;;;;20.75;100.00;97710.03;4958628;29;20082;-83
2021/06/17 00:39:12;;;;;;;8.40;4.35;;;;;;;20.71;100.00;97714.72;4957982;29;20047;-82
2021/06/17 00:41:40;;;;;;;7.40;3.85;;;;;;;20.66;100.00;97715.06;4960190;29;20047;-82
2021/06/17 00:44:07;;;;;;;5.55;3.72;;;;;;;20.58;100.00;97707.13;4957329;29;20051;-81
2021/06/17 00:46:34;;;;;;;10.50;4.30;;;;;;;20.57;100.00;97716.56;4960009;29;20118;-81
2021/06/17 00:49:03;;;;;;;9.18;4.20;;;;;;;20.49;100.00;97705.47;4958928;29;20051;-82
2021/06/17 00:51:30;;;;;;;10.27;4.18;;;;;;;20.46;100.00;97725.50;4958547;29;20463;-84
2021/06/17 00:53:57;;;;;;;7.22;3.97;;;;;;;20.28;100.00;97718.22;4941058;29;20123;-83
2021/06/17 00:56:24;;;;;;;7.70;4.10;;;;;;;20.18;100.00;97716.88;4958473;29;20047;-83
2021/06/17 00:58:58;;;;;;;8.27;4.10;;;;;;;20.15;100.00;97727.84;4959008;29;20114;-85
2021/06/17 01:01:25;;;;;;;7.35;4.13;;;;;;;19.97;100.00;97718.59;4958567;29;20047;-82
2021/06/17 01:03:52;;;;;;;9.20;4.25;;;;;;;19.95;100.00;97731.91;4959539;29;20048;-84
2021/06/17 01:06:18;;;;;;;10.98;4.38;;;;;;;19.80;100.00;97719.94;4957389;29;20051;-83
2021/06/17 01:08:48;;;;;;;8.20;4.63;;;;;;;19.78;100.00;97728.56;4964310;28;20039;-83
2021/06/17 01:11:48;;;;;;;6.85;4.35;;;;;;;19.67;100.00;97733.13;4946707;29;20051;-83
2021/06/17 01:14:23;;;;;;;8.23;3.95;;;;;;;19.55;100.00;97719.63;4964075;28;20031;-83
2021/06/17 01:17:02;;;;;;;10.45;4.25;;;;;;;19.54;100.00;97729.00;4958834;29;20038;-83
2021/06/17 01:19:32;;;;;;;8.55;4.10;;;;;;;19.48;100.00;97730.50;4956198;29;20066;-83
2021/06/17 01:21:58;;;;;;;8.05;4.20;;;;;;;19.43;100.00;97733.56;4959146;29;20147;-83
2021/06/17 01:24:47;;;;;;;9.15;4.22;;;;;;;19.38;100.00;97725.66;4957986;29;20051;-84
2021/06/17 01:27:20;;;;;;;9.30;4.65;;;;;;;19.38;100.00;97731.16;4955505;29;20043;-83
2021/06/17 01:30:12;;;;;;;7.10;4.35;;;;;;;19.38;100.00;97731.16;4960141;29;20051;-84
2021/06/17 01:33:03;;;;;;;7.80;4.22;;;;;;;19.34;100.00;97715.72;4936718;29;20625;-83
2021/06/17 01:35:38;;;;;;;9.63;4.30;;;;;;;19.33;100.00;97708.66;4943890;29;20138;-84
2021/06/17 01:38:06;;;;;;;9.98;4.60;;;;;;;19.37;100.00;97706.75;4957043;29;20039;-84
2021/06/17 01:40:35;;;;;;;6.70;3.95;;;;;;;19.42;100.00;97704.50;4955579;29;20087;-84
2021/06/17 01:43:04;;;;;;;9.20;4.30;;;;;;;19.54;100.00;97707.03;4943328;29;20059;-82
2021/06/17 01:45:31;;;;;;;6.78;4.20;;;;;;;19.53;100.00;97697.22;4958198;29;20055;-83
2021/06/17 01:48:00;;;;;;;10.27;4.47;;;;;;;19.56;100.00;97699.22;4959260;29;20094;-82
2021/06/17 01:50:29;;;;;;;11.55;4.82;;;;;;;19.58;100.00;97702.41;4963510;29;20054;-83
2021/06/17 01:52:56;;;;;;;10.45;4.30;;;;;;;19.59;100.00;97692.97;4962959;29;20082;-83
2021/06/17 01:55:29;;;;;;;9.48;4.65;;;;;;;19.63;100.00;97695.78;4962121;29;20041;-82
2021/06/17 02:14:20;;;;;;;8.10;4.65;;;;;;;19.19;100.00;97677.09;4918622;28;20043;-83
2021/06/17 02:16:52;;;;;;;16.85;4.75;;;;;;;19.19;100.00;97685.34;4961194;29;20051;-82
2021/06/17 02:19:23;;;;;;;9.35;5.10;;;;;;;19.13;100.00;97684.06;4962034;29;20054;-83
2021/06/17 02:21:53;;;;;;;9.05;5.13;;;;;;;19.04;100.00;97669.03;4960417;29;20046;-84
2021/06/17 02:24:24;;;;;;;12.35;4.97;;;;;;;18.98;100.00;97678.72;4961136;29;20048;-84
2021/06/17 02:26:57;;;;;;;7.93;4.95;;;;;;;18.90;100.00;97677.81;4960975;29;20118;-85
2021/06/17 02:29:26;;;;;;;11.75;5.35;;;;;;;18.71;100.00;97669.69;4960979;29;20062;-85
2021/06/17 02:31:56;;;;;;;9.07;5.03;;;;;;;18.66;100.00;97672.72;4944307;29;20426;-83
2021/06/17 02:34:24;;;;;;;9.80;5.28;;;;;;;18.60;100.00;97665.97;4960970;29;20047;-81
2021/06/17 02:37:20;;;;;;;7.20;4.95;;;;;;;18.61;100.00;97687.53;4938450;29;20059;-85
2021/06/17 02:39:50;;;;;;;9.68;4.88;;;;;;;18.56;100.00;97678.81;4960812;28;20519;-84
2021/06/17 02:42:19;;;;;;;8.38;5.30;;;;;;;18.53;100.00;97688.56;4967621;28;20047;-85
2021/06/17 02:44:48;;;;;;;12.18;5.55;;;;;;;18.47;100.00;97678.28;4962048;29;20054;-85
2021/06/17 02:47:14;;;;;;;12.48;5.43;;;;;;;18.42;100.00;97681.28;4963880;29;20051;-83
2021/06/17 02:49:42;;;;;;;13.98;5.38;;;;;;;18.33;100.00;97680.72;4954411;29;20051;-84
2021/06/17 02:52:11;;;;;;;9.60;5.15;;;;;;;18.23;100.00;97679.38;4953394;29;20129;-83
2021/06/17 02:54:38;;;;;;;9.45;5.28;;;;;;;18.15;100.00;97663.16;4961814;29;20061;-82
2021/06/17 02:57:48;;;;;;;8.50;5.47;;;;;;;18.15;100.00;97676.84;4955636;29;20043;-82
2021/06/17 03:00:18;;;;;;;9.93;5.15;;;;;;;18.15;100.00;97674.91;4957522;28;20081;-83
2021/06/17 03:03:02;;;;;;;12.57;5.38;;;;;;;18.13;100.00;97682.72;4956252;29;20039;-85
2021/06/17 03:05:41;;;;;;;9.52;5.20;;;;;;;18.09;100.00;97681.84;4960483;29;20118;-83
2021/06/17 03:08:32;;;;;;;12.65;6.03;;;;;;;18.09;100.00;97670.91;4961142;29;20074;-84
2021/06/17 03:11:04;;;;;;;11.15;6.03;;;;;;;18.21;100.00;97681.69;4944164;29;20055;-84
2021/06/17 03:13:36;;;;;;;16.55;5.40;;;;;;;18.26;100.00;97669.63;4974609;28;20057;-85
2021/06/17 03:16:07;;;;;;;11.98;5.70;;;;;;;18.26;100.00;97659.47;4971956;28;20089;-86
2021/06/17 03:18:39;;;;;;;14.05;5.70;;;;;;;18.27;100.00;97665.75;4974974;28;20045;-83
2021/06/17 03:21:07;;;;;;;8.57;4.97;;;;;;;18.32;100.00;97663.50;4991818;28;20043;-83
2021/06/17 03:23:38;;;;;;;11.70;5.60;;;;;;;18.34;100.00;97649.41;4957189;28;20047;-85
2021/06/17 03:26:08;;;;;;;8.80;5.72;;;;;;;18.36;100.00;97655.31;4973390;28;20039;-84
2021/06/17 03:28:38;;;;;;;11.00;5.63;;;;;;;18.34;100.00;97646.69;4973527;28;20097;-83
2021/06/17 03:31:08;;;;;;;8.70;5.13;;;;;;;18.42;100.00;97651.13;4987362;28;20070;-86
2021/06/17 03:33:37;;;;;;;8.55;5.00;;;;;;;18.47;100.00;97643.44;4984215;28;20030;-83
2021/06/17 03:36:09;;;;;;;11.13;5.22;;;;;;;18.39;100.00;97638.16;4982836;28;20069;-85
2021/06/17 03:38:42;;;;;;;10.45;5.82;;;;;;;18.52;100.00;97658.78;4946823;28;20051;-85
2021/06/17 03:41:12;;;;;;;16.27;6.22;;;;;;;18.50;100.00;97658.34;4947996;28;20074;-84
2021/06/17 03:43:40;;;;;;;10.05;5.60;;;;;;;18.43;100.00;97648.00;4947128;28;20084;-83
2021/06/17 03:46:09;;;;;;;8.50;5.20;;;;;;;18.41;100.00;97644.84;4980841;28;20225;-84
2021/06/17 03:48:45;;;;;;;9.57;5.43;;;;;;;18.36;100.00;97638.88;4968767;28;20065;-83
2021/06/17 03:51:48;;;;;;;14.82;5.78;;;;;;;18.35;100.00;97646.31;4886982;29;20109;-84
2021/06/17 03:54:27;;;;;;;10.60;5.65;;;;;;;18.44;100.00;97662.50;4872221;29;20184;-84
2021/06/17 03:56:58;;;;;;;9.55;5.72;;;;;;;18.49;100.00;97671.25;4871325;29;20067;-84
2021/06/17 03:59:42;;;;;;;10.18;5.72;;;;;;;18.46;100.00;97668.41;4856883;29;20053;-83
2021/06/17 04:02:14;;;;;;;14.60;5.60;;;;;;;18.48;100.00;97655.97;4894213;29;20059;-83
2021/06/17 04:04:50;;;;;;;10.90;6.38;;;;;;;18.41;100.00;97639.38;4867086;29;20082;-83
2021/06/17 04:07:25;;;;;;;12.35;5.65;;;;;;;18.88;100.00;97660.94;4857535;29;20057;-73
2021/06/17 04:09:54;;;;;;;13.57;5.53;;;;;;;18.98;100.00;97662.25;4857045;29;20057;-73
2021/06/17 04:12:23;;;;;;;11.63;5.15;;;;;;;19.09;100.00;97669.50;4871337;29;20057;-73
2021/06/17 04:14:54;;;;;;;10.18;5.10;;;;;;;19.19;100.00;97674.34;4877187;29;20100;-74
2021/06/17 04:17:37;;;;;;;10.55;5.07;;;;;;;19.25;100.00;97678.34;4932833;29;20043;-74
2021/06/17 04:20:05;;;;;;;9.48;4.78;;;;;;;19.29;100.00;97683.91;4934843;29;20502;-74
2021/06/17 04:22:38;;;;;;;9.85;5.05;;;;;;;19.34;100.00;97683.59;4950413;29;20384;-73
2021/06/17 04:25:08;;;;;;;10.48;5.78;;;;;;;19.43;100.00;97697.88;4950345;29;20126;-74
2021/06/17 04:27:38;;;;;;;10.52;4.80;;;;;;;19.47;100.00;97690.47;4934499;29;20101;-74
2021/06/17 04:30:06;;;;;;;7.80;5.13;;;;;;;19.55;100.00;97692.16;4953452;28;20039;-73
2021/06/17 04:32:35;;;;;;;8.82;5.30;;;;;;;19.59;100.00;97698.47;4968641;28;20526;-74
2021/06/17 04:35:02;;;;;;;17.80;5.28;;;;;;;19.64;100.00;97700.88;4967544;28;20088;-74
2021/06/17 04:37:29;;;;;;;11.07;5.25;;;;;;;19.76;100.00;97700.69;4969191;28;20038;-73
2021/06/17 04:39:59;;;;;;;12.63;4.97;;;;;;;19.86;100.00;97704.72;4953384;28;20053;-75
2021/06/17 04:42:27;;;;;;;9.30;4.90;;;;;;;19.89;100.00;97698.47;4970495;28;20047;-74
2021/06/17 04:44:54;;;;;;;8.55;4.82;;;;;;;19.96;100.00;97701.31;4969016;28;20090;-74
2021/06/17 04:47:21;;;;;;;7.72;4.38;;;;;;;20.01;100.00;97705.66;4952730;28;20050;-74
2021/06/17 04:49:49;;;;;;;10.10;4.40;;;;;;;20.07;100.00;97704.19;4952819;28;20050;-74
2021/06/17 04:52:23;;;;;;;6.90;3.97;;;;;;;20.21;100.00;97709.81;4969858;28;20047;-72
2021/06/17 04:54:49;;;;;;;7.18;4.40;;;;;;;20.25;100.00;97708.75;4969884;28;20046;-74
2021/06/17 04:57:16;;;;;;;13.38;5.30;;;;;;;20.36;100.00;97706.88;4971136;28;20039;-78
2021/06/17 04:59:43;;;;;;;8.52;4.82;;;;;;;20.48;100.00;97712.16;4931423;29;20054;-73
2021/06/17 05:02:13;;;;;;;11.63;4.63;;;;;;;20.57;100.00;97714.56;4943150;28;20050;-82
2021/06/17 05:05:29;;;;;;;10.55;4.60;;;;;;;20.58;100.00;97698.84;4971826;28;20045;-82
2021/06/17 05:11:58;;;;;;;9.30;4.45;;;;;;;20.89;100.00;97685.41;4963463;28;20047;-82
2021/06/17 05:23:40;;;;;;;;;;;;;;;;;;;;;
2021/06/17 05:31:11;;;;;;;8.48;4.47;;;;;;;21.76;100.00;97718.66;5109452;22;20509;-82
2021/06/17 05:33:38;;;;;;;14.23;4.45;;;;;;;21.83;100.00;97715.94;5014954;28;20536;-82
2021/06/17 05:36:05;;;;;;;9.43;4.25;;;;;;;21.95;100.00;97718.38;5018545;28;20053;-81
2021/06/17 05:38:33;;;;;;;10.82;4.40;;;;;;;22.02;100.00;97721.16;5033151;28;20081;-80
2021/06/17 05:41:00;;;;;;;10.07;4.35;;;;;;;22.13;100.00;97719.25;5030534;28;20037;-83
2021/06/17 05:43:29;;;;;;;10.25;4.03;;;;;;;22.25;100.00;97722.44;5030516;28;20048;-81
2021/06/17 05:45:56;;;;;;;8.70;4.47;;;;;;;22.33;100.00;97723.25;5012585;28;20049;-80
2021/06/17 05:48:22;;;;;;;19.40;4.70;;;;;;;22.46;100.00;97720.91;4996297;28;20105;-80
2021/06/17 05:50:59;;;;;;;11.45;4.13;;;;;;;22.57;100.00;97730.03;5031524;28;20045;-81
2021/06/17 05:53:30;;;;;;;12.23;4.90;;;;;;;22.65;100.00;97726.13;5031024;28;20177;-81
2021/06/17 05:55:56;;;;;;;8.90;4.55;;;;;;;22.71;100.00;97725.34;5014125;28;20496;-82
2021/06/17 05:58:23;;;;;;;12.75;4.13;;;;;;;22.81;100.00;97726.56;5030631;28;20219;-81
2021/06/17 06:00:49;;;;;;;15.98;6.55;;;;;;;22.91;100.00;97723.00;5031012;28;20144;-80
2021/06/17 06:03:16;;;;;;;10.68;5.38;;;;;;;23.03;100.00;97728.13;5012730;28;20484;-79
2021/06/17 06:05:43;;;;;;;12.25;6.07;;;;;;;23.05;100.00;97713.94;5013406;28;20075;-82
2021/06/17 06:08:12;;;;;;;8.13;4.88;;;;;;;23.14;100.00;97723.41;5030536;28;20469;-81
2021/06/17 06:10:40;;;;;;;10.27;3.97;;;;;;;23.19;100.00;97727.75;5030571;28;20061;-81
2021/06/17 06:13:09;;;;;;;6.35;4.00;;;;;;;23.33;100.00;97717.47;5029827;28;20095;-81
2021/06/17 06:15:36;;;;;;;10.07;4.18;;;;;;;23.51;100.00;97720.25;5029967;28;20148;-79
2021/06/17 06:18:14;;;;;;;10.45;4.28;;;;;;;23.70;100.00;97724.53;5010663;28;20632;-81
2021/06/17 06:20:46;;;;;;;8.35;3.75;;;;;;;23.73;100.00;97723.75;5011403;28;20048;-81
2021/06/17 06:23:13;;;;;;;14.45;3.88;;;;;;;23.79;100.00;97728.47;5012467;28;20053;-80
2021/06/17 06:25:45;;;;;;;11.02;4.00;;;;;;;24.02;100.00;97722.47;5030214;28;20053;-81
2021/06/17 06:28:11;;;;;;;9.82;3.75;;;;;;;24.10;100.00;97715.75;5029224;28;20049;-80
2021/06/17 06:30:38;;;;;;;7.88;3.75;;;;;;;24.25;100.00;97722.00;4996064;28;20056;-80
2021/06/17 06:33:05;;;;;;;11.32;4.13;;;;;;;24.24;100.00;97723.97;5029839;28;20045;-80
2021/06/17 06:35:31;;;;;;;7.47;3.45;;;;;;;24.29;100.00;97722.78;5011563;28;20049;-81
2021/06/17 06:37:58;;;;;;;9.20;3.72;;;;;;;24.39;100.00;97721.94;5011744;28;20057;-80
2021/06/17 06:40:27;;;;;;;8.90;3.75;;;;;;;24.56;100.00;97721.06;5029062;28;20111;-79
2021/06/17 06:42:55;;;;;;;8.43;3.50;;;;;;;24.66;98.68;97726.53;5030551;28;20488;-81
2021/06/17 06:45:23;;;;;;;7.75;3.67;;;;;;;24.73;89.05;97736.75;5029850;28;20049;-80
2021/06/17 06:47:51;;;;;;;8.30;3.70;;;;;;;24.82;93.99;97737.13;5029783;28;20082;-80
2021/06/17 06:50:20;;;;;;;11.07;3.80;;;;;;;24.97;93.18;97738.63;5012857;28;20064;-81
2021/06/17 06:52:47;;;;;;;10.43;3.92;;;;;;;24.98;90.58;97744.94;5030465;28;20038;-79
2021/06/17 06:55:14;;;;;;;8.35;3.85;;;;;;;25.06;90.14;97744.47;5029756;28;20123;-80
2021/06/17 06:57:41;;;;;;;6.70;3.22;;;;;;;25.18;82.96;97744.00;5028707;28;20064;-81
2021/06/17 07:00:12;;;;;;;6.75;3.47;;;;;;;25.32;78.19;97745.84;5010617;28;20048;-81
2021/06/17 07:02:45;;;;;;;9.88;3.78;;;;;;;25.52;84.93;97746.91;5012174;28;20444;-81
2021/06/17 07:05:12;;;;;;;6.28;3.55;;;;;;;25.55;78.02;97751.59;5028778;28;20442;-79
2021/06/17 07:07:40;;;;;;;9.50;3.60;;;;;;;25.67;76.26;97748.34;5011550;28;20249;-79
2021/06/17 07:10:08;;;;;;;5.90;3.17;;;;;;;25.72;68.88;97741.53;5013591;28;20045;-81
2021/06/17 07:12:35;;;;;;;5.85;3.47;;;;;;;25.85;82.53;97748.16;5014175;28;20140;-82
2021/06/17 07:15:03;;;;;;;8.20;3.60;;;;;;;25.99;81.19;97746.00;5011174;28;20071;-81
2021/06/17 07:17:29;;;;;;;6.53;3.40;;;;;;;26.00;75.44;97747.56;5011232;28;20079;-79
2021/06/17 07:19:59;;;;;;;10.30;3.20;;;;;;;26.16;80.38;97744.25;4994014;28;20579;-80
2021/06/17 07:22:25;;;;;;;8.30;3.78;;;;;;;26.22;76.19;97752.91;5028242;28;20041;-79
2021/06/17 07:24:53;;;;;;;7.50;3.47;;;;;;;26.32;79.13;97752.00;5028061;28;20097;-82
2021/06/17 07:27:21;;;;;;;7.20;3.63;;;;;;;26.36;73.35;97747.16;5027462;28;20055;-81
2021/06/17 07:29:48;;;;;;;7.60;3.72;;;;;;;26.40;75.94;97747.94;5008710;28;20104;-79
2021/06/17 07:32:14;;;;;;;8.15;3.63;;;;;;;26.47;67.43;97748.63;4992234;28;20045;-80
2021/06/17 07:34:45;;;;;;;9.88;3.40;;;;;;;26.65;67.75;97751.16;5026786;28;20049;-81
2021/06/17 07:37:13;;;;;;;9.43;3.63;;;;;;;26.66;65.32;97735.28;5026904;28;20513;-80
2021/06/17 07:39:39;;;;;;;6.57;3.75;;;;;;;26.81;61.79;97740.25;5009216;28;20140;-81
2021/06/17 07:42:06;;;;;;;6.78;3.47;;;;;;;26.93;58.01;97736.88;5027036;28;20092;-80
2021/06/17 07:44:33;;;;;;;12.57;3.50;;;;;;;27.07;59.80;97736.63;4994060;28;20053;-80
2021/06/17 07:46:59;;;;;;;9.65;3.30;;;;;;;27.23;57.47;97731.22;5030286;28;20421;-81
2021/06/17 07:49:26;;;;;;;6.45;3.47;;;;;;;27.38;56.85;97739.34;5028070;28;20517;-80
2021/06/17 07:51:53;;;;;;;8.20;3.25;;;;;;;27.66;57.73;97744.44;4993327;28;20041;-79
2021/06/17 07:54:19;;;;;;;9.68;3.47;;;;;;;27.94;54.15;97745.88;5009224;28;20041;-80
2021/06/17 07:56:48;;;;;;;6.43;3.50;;;;;;;27.96;57.65;97743.47;5008219;28;20095;-80
2021/06/17 07:59:18;;;;;;;8.00;3.17;;;;;;;28.01;55.69;97748.53;5027022;28;20237;-79
2021/06/17 08:01:46;;;;;;;24.63;3.95;;;;;;;27.96;55.26;97749.81;5008522;28;20481;-81
2021/06/17 08:04:17;;;;;;;13.77;3.70;;;;;;;27.97;53.55;97747.81;4992700;28;20050;-81
2021/06/17 08:06:44;;;;;;;8.90;3.33;;;;;;;27.84;50.85;97747.69;5028441;28;20411;-80
2021/06/17 08:09:17;;;;;;;12.27;3.15;;;;;;;27.87;50.06;97755.19;5009836;28;20088;-80
2021/06/17 08:11:45;;;;;;;6.03;3.35;;;;;;;27.95;50.57;97767.72;5028009;28;20453;-80
2021/06/17 08:14:24;;;;;;;7.05;3.20;;;;;;;28.10;49.22;97757.16;5025808;28;20123;-80
2021/06/17 08:16:53;;;;;;;7.10;2.97;;;;;;;28.03;48.95;97766.41;5027243;28;20060;-81
2021/06/17 08:19:26;;;;;;;7.10;2.95;;;;;;;28.11;48.02;97758.69;5009549;28;20045;-81
2021/06/17 08:21:53;;;;;;;12.48;3.50;;;;;;;28.20;47.92;97756.16;5028646;28;20140;-81
2021/06/17 08:24:19;;;;;;;8.63;3.10;;;;;;;28.49;50.60;97753.56;5009718;28;20069;-80
2021/06/17 08:26:47;;;;;;;8.18;3.35;;;;;;;28.52;50.01;97756.25;5009309;28;20111;-81
2021/06/17 08:29:13;;;;;;;9.00;3.00;;;;;;;28.59;48.37;97758.91;5026270;28;20045;-81
2021/06/17 08:31:42;;;;;;;10.98;3.10;;;;;;;28.62;48.14;97751.72;5008432;28;20053;-79
2021/06/17 08:34:10;;;;;;;5.93;2.72;;;;;;;28.55;48.21;97752.63;5008082;28;20549;-80
2021/06/17 08:36:39;;;;;;;8.85;3.10;;;;;;;28.66;48.62;97749.63;5026127;28;20069;-80
2021/06/17 08:39:07;;;;;;;9.27;2.90;;;;;;;28.80;50.33;97760.47;5008754;28;20328;-79
2021/06/17 08:41:33;;;;;;;6.05;3.25;;;;;;;28.94;49.26;97757.34;4994499;28;20076;-82
2021/06/17 08:44:00;;;;;;;7.10;2.92;;;;;;;28.90;46.76;97751.88;5011981;28;20065;-80
2021/06/17 08:46:27;;;;;;;9.85;3.40;;;;;;;29.09;48.83;97746.66;5030133;28;20053;-81
2021/06/17 08:48:53;;;;;;;12.45;3.15;;;;;;;29.26;47.88;97754.63;5029451;28;20356;-81
2021/06/17 08:51:20;;;;;;;6.15;2.75;;;;;;;29.42;46.46;97759.44;5012349;28;20046;-79
2021/06/17 08:53:51;;;;;;;7.28;3.10;;;;;;;29.32;44.96;97752.88;5029863;28;20053;-78
2021/06/17 08:56:17;;;;;;;5.28;2.90;;;;;;;29.27;43.58;97755.41;5012745;28;20342;-81
2021/06/17 08:58:45;;;;;;;6.38;2.70;;;;;;;29.38;45.20;97756.72;5031170;28;20042;-80
2021/06/17 09:01:14;;;;;;;8.38;3.00;;;;;;;29.58;42.84;97756.59;5030684;28;20367;-79
2021/06/17 09:03:43;;;;;;;13.45;3.35;;;;;;;29.60;44.10;97760.53;5030738;28;20053;-79
2021/06/17 09:06:10;;;;;;;5.00;2.72;;;;;;;29.75;42.41;97758.16;5014927;28;20225;-80
2021/06/17 09:08:37;;;;;;;6.18;2.80;;;;;;;29.44;41.66;97757.75;5056245;22;20502;-82
2021/06/17 09:11:17;;;;;;;8.70;2.97;;;;;;;29.82;42.52;97754.41;4999805;28;20080;-82
2021/06/17 09:13:44;;;;;;;6.05;2.75;;;;;;;30.04;41.87;97764.56;4999641;28;20054;-83
2021/06/17 09:16:27;;;;;;;5.13;2.90;;;;;;;30.00;40.82;97754.72;5002113;28;20096;-84
2021/06/17 09:18:53;;;;;;;5.90;3.15;;;;;;;30.19;42.63;97762.19;5035423;28;20049;-82
2021/06/17 09:21:20;;;;;;;7.72;2.60;;;;;;;30.28;41.86;97765.09;5035832;28;20026;-83
2021/06/17 09:23:49;;;;;;;4.07;2.40;;;;;;;30.18;40.08;97763.41;5019672;28;20045;-83
2021/06/17 09:26:18;;;;;;;6.95;2.53;;;;;;;30.31;40.26;97764.22;5016890;28;20104;-81
2021/06/17 09:28:51;;;;;;;5.35;2.30;;;;;;;30.44;40.76;97764.28;4997356;28;20042;-82
2021/06/17 09:31:21;;;;;;;5.68;2.58;;;;;;;30.54;40.14;97766.78;4997931;28;20057;-82
2021/06/17 09:33:50;;;;;;;5.07;2.78;;;;;;;30.88;40.18;97762.56;4998179;28;20056;-81
2021/06/17 09:36:20;;;;;;;10.10;2.70;;;;;;;31.63;40.37;97759.75;4997049;28;20101;-82
2021/06/17 09:38:49;;;;;;;6.65;2.42;;;;;;;32.49;37.25;97759.09;5015450;28;20054;-83
2021/06/17 09:41:33;;;;;;;7.97;2.70;;;;;;;32.57;36.91;97754.03;4997934;28;20042;-83
2021/06/17 09:44:00;;;;;;;5.38;2.53;;;;;;;33.34;34.17;97747.38;4999197;28;20042;-81
2021/06/17 09:46:27;;;;;;;5.78;2.38;;;;;;;33.92;33.81;97749.34;4999545;28;20069;-82
2021/06/17 09:48:54;;;;;;;7.88;2.60;;;;;;;34.25;32.87;97751.09;4998775;28;20544;-82
2021/06/17 09:51:24;;;;;;;4.78;2.63;;;;;;;34.33;33.83;97745.91;5022966;28;20072;-82
2021/06/17 09:54:28;;;;;;;5.05;2.45;;;;;;;34.21;33.01;97744.84;4999756;28;20054;-83
2021/06/17 09:57:00;;;;;;;3.95;2.47;;;;;;;34.19;31.60;97747.38;4999986;28;20042;-83
2021/06/17 09:59:56;;;;;;;4.85;2.58;;;;;;;34.92;31.87;97752.84;4983436;28;20128;-84
2021/06/17 10:02:33;;;;;;;5.80;2.55;;;;;;;35.80;32.92;97750.56;5016953;28;20463;-83
2021/06/17 10:05:26;;;;;;;7.82;2.60;;;;;;;35.38;30.97;97739.38;5016017;28;20097;-84
2021/06/17 10:07:53;;;;;;;8.85;2.72;;;;;;;35.54;31.82;97744.63;5015027;28;20076;-83
2021/06/17 10:10:22;;;;;;;10.95;2.72;;;;;;;36.38;30.28;97730.97;5014724;28;20052;-84
2021/06/17 10:12:49;;;;;;;7.03;2.55;;;;;;;36.72;30.15;97738.78;5016258;28;20041;-84
2021/06/17 10:15:16;;;;;;;5.18;2.60;;;;;;;35.65;30.54;97731.53;5015997;28;20046;-83
2021/06/17 10:17:43;;;;;;;4.30;2.50;;;;;;;35.82;28.67;97731.91;5015280;28;20457;-83
2021/06/17 10:20:12;;;;;;;7.57;2.40;;;;;;;35.93;30.86;97737.75;4997310;28;20434;-84
2021/06/17 10:22:40;;;;;;;5.28;2.80;;;;;;;36.69;28.24;97722.81;4998157;28;20164;-83
2021/06/17 10:25:08;;;;;;;7.88;2.83;;;;;;;36.98;28.53;97716.41;4997701;28;20116;-84
2021/06/17 10:27:40;;;;;;;6.63;2.65;;;;;;;36.17;29.38;97727.25;5004028;28;20050;-84
2021/06/17 10:30:10;;;;;;;4.32;2.70;;;;;;;37.80;27.47;97720.88;5023695;28;20038;-84
2021/06/17 10:32:43;;;;;;;7.97;2.70;;;;;;;37.58;26.92;97718.53;5020248;28;20045;-83
2021/06/17 10:35:09;;;;;;;5.35;2.53;;;;;;;36.73;27.83;97719.78;5000006;28;20434;-84
2021/06/17 10:37:53;;;;;;;10.52;2.78;;;;;;;35.24;28.01;97718.31;4998221;28;20044;-83
2021/06/17 10:40:25;;;;;;;9.77;2.20;;;;;;;36.26;28.81;97712.28;5014902;28;20052;-83
2021/06/17 10:42:55;;;;;;;4.40;2.53;;;;;;;37.32;26.91;97720.50;4998411;28;20061;-84
2021/06/17 10:45:43;;;;;;;7.35;2.30;;;;;;;37.41;27.46;97714.72;4997131;28;20486;-83
2021/06/17 10:48:16;;;;;;;7.35;2.63;;;;;;;38.25;25.94;97717.31;4997057;28;20074;-84
2021/06/17 10:51:01;;;;;;;7.72;2.60;;;;;;;38.11;26.05;97723.06;5014772;28;20041;-84
2021/06/17 10:53:33;;;;;;;3.90;2.60;;;;;;;38.17;24.14;97726.75;5014740;28;20108;-84
2021/06/17 10:56:16;;;;;;;9.52;2.60;;;;;;;39.10;25.12;97731.78;4997693;28;20077;-83
2021/06/17 10:58:43;;;;;;;10.27;2.70;;;;;;;38.48;24.70;97732.50;5014423;28;20301;-82
2021/06/17 11:01:33;;;;;;;5.30;2.30;;;;;;;38.36;24.27;97733.66;5014768;28;20415;-84
2021/06/17 11:04:04;;;;;;;3.28;2.40;;;;;;;39.43;23.98;97726.34;4984787;28;20071;-83
2021/06/17 11:06:50;;;;;;;8.15;2.88;;;;;;;38.15;25.88;97727.22;5014161;28;20049;-83
2021/06/17 11:09:45;;;;;;;6.05;2.70;;;;;;;39.30;23.38;97719.56;5013514;28;20077;-83
2021/06/17 11:12:17;;;;;;;6.18;2.60;;;;;;;40.63;22.83;97723.69;5014280;28;20045;-83
2021/06/17 11:14:47;;;;;;;4.28;2.25;;;;;;;40.23;21.82;97710.72;5012372;28;20659;-83
2021/06/17 11:17:29;;;;;;;3.38;2.40;;;;;;;38.60;23.77;97714.34;5013349;28;20085;-82
2021/06/17 11:20:05;;;;;;;7.22;2.83;;;;;;;39.60;22.81;97715.84;4995993;28;20052;-81
2021/06/17 11:22:39;;;;;;;4.72;2.58;;;;;;;39.81;23.62;97711.59;5013274;28;20103;-82
2021/06/17 11:25:15;;;;;;;5.10;2.83;;;;;;;41.19;23.04;97720.88;4996499;28;20237;-82
2021/06/17 11:28:13;;;;;;;4.68;2.75;;;;;;;40.61;24.04;97719.81;5013852;28;20053;-81
2021/06/17 11:30:40;;;;;;;6.60;2.65;;;;;;;41.80;21.94;97723.59;5015182;28;20042;-84
2021/06/17 11:33:16;;;;;;;4.65;2.67;;;;;;;40.04;23.01;97714.50;5014745;28;20073;-84
2021/06/17 11:35:47;;;;;;;7.13;2.75;;;;;;;39.00;23.41;97705.69;5013349;28;20126;-83
2021/06/17 11:38:27;;;;;;;10.05;2.97;;;;;;;41.04;23.90;97702.03;5004469;28;20117;-82
2021/06/17 11:40:54;;;;;;;9.20;2.90;;;;;;;41.35;22.61;97698.13;5005658;28;20391;-83
2021/06/17 11:43:25;;;;;;;8.65;2.80;;;;;;;39.60;22.03;97706.56;5002655;28;20038;-82
2021/06/17 11:45:52;;;;;;;5.10;2.80;;;;;;;40.51;22.87;97710.78;5003799;28;20490;-83
2021/06/17 11:48:23;;;;;;;6.32;3.10;;;;;;;39.99;22.62;97707.53;5016256;28;20066;-83
2021/06/17 11:50:52;;;;;;;5.32;2.80;;;;;;;39.00;24.15;97716.25;4982058;28;20049;-82
2021/06/17 11:53:28;;;;;;;4.82;2.70;;;;;;;39.86;22.31;97701.56;5017667;28;20041;-82
2021/06/17 11:55:59;;;;;;;7.93;2.75;;;;;;;38.85;23.39;97692.94;4985042;28;20057;-82
2021/06/17 11:58:31;;;;;;;3.80;2.88;;;;;;;39.40;23.35;97699.00;5032397;28;20064;-83
2021/06/17 12:00:58;;;;;;;8.00;2.72;;;;;;;41.50;22.10;97681.53;5034260;28;20102;-83
2021/06/17 12:03:26;;;;;;;7.00;2.80;;;;;;;40.97;21.78;97685.50;5031097;28;20101;-85
2021/06/17 12:06:05;;;;;;;12.35;3.40;;;;;;;43.03;21.41;97693.06;5006891;28;20056;-82
2021/06/17 12:08:32;;;;;;;7.07;2.92;;;;;;;42.54;20.66;97690.09;5020396;28;20410;-83
2021/06/17 12:10:59;;;;;;;11.82;3.47;;;;;;;41.94;21.96;97691.22;5021605;28;20129;-83
2021/06/17 12:13:26;;;;;;;10.10;2.97;;;;;;;41.01;22.96;97688.09;5001970;28;20038;-83
2021/06/17 12:15:57;;;;;;;7.53;2.80;;;;;;;41.34;21.54;97682.38;5025760;28;20050;-83
2021/06/17 12:18:24;;;;;;;6.82;2.88;;;;;;;41.89;22.24;97687.06;5028260;28;20046;-82
2021/06/17 12:20:52;;;;;;;5.93;2.90;;;;;;;42.53;19.96;97679.22;5024370;28;20048;-80
2021/06/17 12:23:22;;;;;;;4.03;3.00;;;;;;;42.37;21.09;97680.88;5023967;28;20052;-81